sensor_id;sensor_type;location;lat;lon;timestamp;pressure;altitude;pressure_sealevel;temperature;humidity
80654;BME280;70020;45.524;10.240;2023-06-26T00:00:57;100087.91;;;26.55;48.23
80654;BME280;70020;45.524;10.240;2023-06-26T00:03:23;100087.50;;;26.51;48.03
80654;BME280;70020;45.524;10.240;2023-06-26T00:05:50;100080.53;;;26.50;47.77
80654;BME280;70020;45.524;10.240;2023-06-26T00:08:18;100094.63;;;26.51;47.19
80654;BME280;70020;45.524;10.240;2023-06-26T00:10:45;100096.50;;;26.44;47.47
80654;BME280;70020;45.524;10.240;2023-06-26T00:13:11;100087.09;;;26.48;47.97
80654;BME280;70020;45.524;10.240;2023-06-26T00:15:37;100083.22;;;26.44;47.58
80654;BME280;70020;45.524;10.240;2023-06-26T00:18:04;100097.31;;;26.44;48.03
80654;BME280;70020;45.524;10.240;2023-06-26T00:20:30;100089.97;;;26.40;48.28
80654;BME280;70020;45.524;10.240;2023-06-26T00:22:59;100101.00;;;26.37;48.04
80654;BME280;70020;45.524;10.240;2023-06-26T00:25:24;100100.59;;;26.26;48.13
80654;BME280;70020;45.524;10.240;2023-06-26T00:27:52;100104.09;;;26.20;48.39
80654;BME280;70020;45.524;10.240;2023-06-26T00:30:17;100095.53;;;26.18;48.19
80654;BME280;70020;45.524;10.240;2023-06-26T00:32:43;100098.59;;;26.15;48.78
80654;BME280;70020;45.524;10.240;2023-06-26T00:35:09;100102.47;;;26.06;47.94
80654;BME280;70020;45.524;10.240;2023-06-26T00:37:34;100091.66;;;26.01;49.26
80654;BME280;70020;45.524;10.240;2023-06-26T00:40:00;100090.03;;;25.87;48.44
80654;BME280;70020;45.524;10.240;2023-06-26T00:42:26;100091.50;;;25.77;49.22
80654;BME280;70020;45.524;10.240;2023-06-26T00:44:51;100081.06;;;25.75;49.27
80654;BME280;70020;45.524;10.240;2023-06-26T00:47:18;100095.16;;;25.82;48.60
80654;BME280;70020;45.524;10.240;2023-06-26T00:49:44;100101.28;;;25.76;49.16
80654;BME280;70020;45.524;10.240;2023-06-26T00:52:09;100098.81;;;25.75;49.75
80654;BME280;70020;45.524;10.240;2023-06-26T00:54:35;100100.66;;;25.67;49.01
80654;BME280;70020;45.524;10.240;2023-06-26T00:57:02;100109.00;;;25.58;49.08
80654;BME280;70020;45.524;10.240;2023-06-26T00:59:28;100107.19;;;25.52;49.05
80654;BME280;70020;45.524;10.240;2023-06-26T01:01:54;100100.88;;;25.53;48.73
80654;BME280;70020;45.524;10.240;2023-06-26T01:04:20;100102.91;;;25.64;48.76
80654;BME280;70020;45.524;10.240;2023-06-26T01:06:46;100102.50;;;25.67;48.89
80654;BME280;70020;45.524;10.240;2023-06-26T01:09:18;100100.25;;;25.71;49.21
80654;BME280;70020;45.524;10.240;2023-06-26T01:11:44;100100.88;;;25.59;50.19
80654;BME280;70020;45.524;10.240;2023-06-26T01:14:11;100100.66;;;25.61;49.70
80654;BME280;70020;45.524;10.240;2023-06-26T01:16:37;100101.66;;;25.53;50.19
80654;BME280;70020;45.524;10.240;2023-06-26T01:19:11;100105.13;;;25.47;49.70
80654;BME280;70020;45.524;10.240;2023-06-26T01:21:42;100102.88;;;25.51;49.66
80654;BME280;70020;45.524;10.240;2023-06-26T01:24:17;100099.59;;;25.29;50.18
80654;BME280;70020;45.524;10.240;2023-06-26T01:26:50;100096.50;;;25.26;50.28
80654;BME280;70020;45.524;10.240;2023-06-26T01:29:17;100100.16;;;25.25;50.91
80654;BME280;70020;45.524;10.240;2023-06-26T01:31:43;100096.91;;;25.23;50.37
80654;BME280;70020;45.524;10.240;2023-06-26T01:34:11;100096.31;;;25.27;50.75
80654;BME280;70020;45.524;10.240;2023-06-26T01:36:38;100089.56;;;25.25;50.88
80654;BME280;70020;45.524;10.240;2023-06-26T01:39:04;100087.97;;;25.24;51.19
80654;BME280;70020;45.524;10.240;2023-06-26T01:41:30;100088.94;;;25.10;50.81
80654;BME280;70020;45.524;10.240;2023-06-26T01:46:25;100100.69;;;24.94;51.39
80654;BME280;70020;45.524;10.240;2023-06-26T01:49:01;100098.47;;;24.91;51.32
80654;BME280;70020;45.524;10.240;2023-06-26T01:51:31;100094.00;;;24.98;51.27
80654;BME280;70020;45.524;10.240;2023-06-26T01:53:58;100089.28;;;24.87;51.74
80654;BME280;70020;45.524;10.240;2023-06-26T01:56:25;100089.31;;;24.93;51.61
80654;BME280;70020;45.524;10.240;2023-06-26T01:58:54;100090.09;;;24.87;51.72
80654;BME280;70020;45.524;10.240;2023-06-26T02:01:20;100090.31;;;24.92;52.04
80654;BME280;70020;45.524;10.240;2023-06-26T02:03:46;100088.72;;;24.91;51.87
80654;BME280;70020;45.524;10.240;2023-06-26T02:06:13;100099.69;;;24.88;51.84
80654;BME280;70020;45.524;10.240;2023-06-26T02:08:39;100093.44;;;24.62;52.54
80654;BME280;70020;45.524;10.240;2023-06-26T02:11:05;100088.88;;;24.49;52.85
80654;BME280;70020;45.524;10.240;2023-06-26T02:13:30;100086.69;;;24.53;52.92
80654;BME280;70020;45.524;10.240;2023-06-26T02:15:56;100100.16;;;24.64;52.48
80654;BME280;70020;45.524;10.240;2023-06-26T02:18:22;100098.13;;;24.66;52.96
80654;BME280;70020;45.524;10.240;2023-06-26T02:20:49;100097.13;;;24.61;52.64
80654;BME280;70020;45.524;10.240;2023-06-26T02:23:14;100105.91;;;24.68;52.99
80654;BME280;70020;45.524;10.240;2023-06-26T02:25:40;100095.50;;;24.66;52.44
80654;BME280;70020;45.524;10.240;2023-06-26T02:28:06;100104.41;;;24.59;52.95
80654;BME280;70020;45.524;10.240;2023-06-26T02:30:32;100102.41;;;24.61;53.04
80654;BME280;70020;45.524;10.240;2023-06-26T02:32:57;100105.22;;;24.59;52.16
80654;BME280;70020;45.524;10.240;2023-06-26T02:35:23;100102.19;;;24.62;52.75
80654;BME280;70020;45.524;10.240;2023-06-26T02:37:49;100106.38;;;24.44;52.76
80654;BME280;70020;45.524;10.240;2023-06-26T02:40:15;100106.97;;;24.39;53.55
80654;BME280;70020;45.524;10.240;2023-06-26T02:42:40;100107.38;;;24.43;52.91
80654;BME280;70020;45.524;10.240;2023-06-26T02:45:07;100105.41;;;24.51;52.81
80654;BME280;70020;45.524;10.240;2023-06-26T02:47:33;100101.13;;;24.50;52.76
80654;BME280;70020;45.524;10.240;2023-06-26T02:49:58;100101.72;;;24.46;52.97
80654;BME280;70020;45.524;10.240;2023-06-26T02:52:24;100102.94;;;24.50;53.38
80654;BME280;70020;45.524;10.240;2023-06-26T02:54:49;100111.06;;;24.42;52.99
80654;BME280;70020;45.524;10.240;2023-06-26T02:57:15;100108.19;;;24.43;53.04
80654;BME280;70020;45.524;10.240;2023-06-26T02:59:42;100106.97;;;24.39;53.90
80654;BME280;70020;45.524;10.240;2023-06-26T03:02:07;100105.13;;;24.40;53.46
80654;BME280;70020;45.524;10.240;2023-06-26T03:04:33;100107.94;;;24.31;53.56
80654;BME280;70020;45.524;10.240;2023-06-26T03:07:02;100107.91;;;24.25;54.03
80654;BME280;70020;45.524;10.240;2023-06-26T03:09:28;100112.34;;;24.18;53.79
80654;BME280;70020;45.524;10.240;2023-06-26T03:11:53;100115.56;;;24.13;54.04
80654;BME280;70020;45.524;10.240;2023-06-26T03:14:20;100105.19;;;24.18;54.25
80654;BME280;70020;45.524;10.240;2023-06-26T03:16:46;100115.75;;;24.12;54.04
80654;BME280;70020;45.524;10.240;2023-06-26T03:19:12;100112.50;;;24.16;53.85
80654;BME280;70020;45.524;10.240;2023-06-26T03:21:37;100111.91;;;24.14;53.96
80654;BME280;70020;45.524;10.240;2023-06-26T03:24:03;100112.75;;;24.21;53.73
80654;BME280;70020;45.524;10.240;2023-06-26T03:26:30;100112.78;;;24.28;53.86
80654;BME280;70020;45.524;10.240;2023-06-26T03:28:56;100120.03;;;24.13;53.56
80654;BME280;70020;45.524;10.240;2023-06-26T03:31:21;100115.75;;;24.12;54.58
80654;BME280;70020;45.524;10.240;2023-06-26T03:33:47;100109.84;;;24.10;53.78
80654;BME280;70020;45.524;10.240;2023-06-26T03:36:12;100113.84;;;24.06;53.94
80654;BME280;70020;45.524;10.240;2023-06-26T03:38:38;100119.59;;;24.09;54.04
80654;BME280;70020;45.524;10.240;2023-06-26T03:41:04;100108.69;;;23.98;53.91
80654;BME280;70020;45.524;10.240;2023-06-26T03:43:30;100111.97;;;24.00;54.22
80654;BME280;70020;45.524;10.240;2023-06-26T03:45:56;100115.88;;;24.04;53.45
80654;BME280;70020;45.524;10.240;2023-06-26T03:48:22;100112.56;;;24.02;53.43
80654;BME280;70020;45.524;10.240;2023-06-26T03:50:47;100121.84;;;24.12;52.97
80654;BME280;70020;45.524;10.240;2023-06-26T03:53:13;100124.72;;;24.17;53.22
80654;BME280;70020;45.524;10.240;2023-06-26T03:55:40;100120.28;;;24.18;53.45
80654;BME280;70020;45.524;10.240;2023-06-26T03:58:05;100124.53;;;24.19;54.10
80654;BME280;70020;45.524;10.240;2023-06-26T04:00:31;100119.41;;;24.11;53.67
80654;BME280;70020;45.524;10.240;2023-06-26T04:02:57;100120.41;;;24.10;53.70
80654;BME280;70020;45.524;10.240;2023-06-26T04:05:22;100115.88;;;24.04;53.77
80654;BME280;70020;45.524;10.240;2023-06-26T04:07:52;100126.16;;;24.13;54.58
80654;BME280;70020;45.524;10.240;2023-06-26T04:10:18;100127.13;;;24.12;53.89
80654;BME280;70020;45.524;10.240;2023-06-26T04:12:43;100122.22;;;24.09;55.51
80654;BME280;70020;45.524;10.240;2023-06-26T04:15:10;100125.38;;;23.98;53.96
80654;BME280;70020;45.524;10.240;2023-06-26T04:17:36;100125.19;;;24.00;53.96
80654;BME280;70020;45.524;10.240;2023-06-26T04:20:01;100120.34;;;24.03;54.00
80654;BME280;70020;45.524;10.240;2023-06-26T04:22:31;100127.34;;;24.11;54.52
80654;BME280;70020;45.524;10.240;2023-06-26T04:24:57;100135.91;;;24.13;54.60
80654;BME280;70020;45.524;10.240;2023-06-26T04:27:23;100143.38;;;24.09;54.92
80654;BME280;70020;45.524;10.240;2023-06-26T04:29:48;100143.09;;;24.04;55.96
80654;BME280;70020;45.524;10.240;2023-06-26T04:32:14;100145.41;;;24.07;54.50
80654;BME280;70020;45.524;10.240;2023-06-26T04:34:40;100145.44;;;24.14;54.24
80654;BME280;70020;45.524;10.240;2023-06-26T04:37:08;100145.69;;;24.19;54.90
80654;BME280;70020;45.524;10.240;2023-06-26T04:39:36;100149.81;;;24.28;55.05
80654;BME280;70020;45.524;10.240;2023-06-26T04:42:03;100145.34;;;24.28;54.58
80654;BME280;70020;45.524;10.240;2023-06-26T04:46:54;100154.00;;;24.44;54.74
80654;BME280;70020;45.524;10.240;2023-06-26T04:49:19;100159.34;;;24.57;54.71
80654;BME280;70020;45.524;10.240;2023-06-26T04:51:45;100161.63;;;24.60;55.01
80654;BME280;70020;45.524;10.240;2023-06-26T04:54:10;100157.16;;;24.60;53.86
80654;BME280;70020;45.524;10.240;2023-06-26T04:56:36;100154.91;;;24.64;54.09
80654;BME280;70020;45.524;10.240;2023-06-26T04:59:03;100152.72;;;24.74;53.62
80654;BME280;70020;45.524;10.240;2023-06-26T05:01:29;100151.16;;;24.79;53.12
80654;BME280;70020;45.524;10.240;2023-06-26T05:03:58;100151.59;;;24.89;54.16
80654;BME280;70020;45.524;10.240;2023-06-26T05:06:23;100147.56;;;24.93;53.55
80654;BME280;70020;45.524;10.240;2023-06-26T05:08:49;100147.59;;;25.07;53.86
80654;BME280;70020;45.524;10.240;2023-06-26T05:11:15;100137.66;;;25.15;53.73
80654;BME280;70020;45.524;10.240;2023-06-26T05:13:41;100133.38;;;25.21;54.14
80654;BME280;70020;45.524;10.240;2023-06-26T05:16:07;100139.72;;;25.26;54.50
80654;BME280;70020;45.524;10.240;2023-06-26T05:18:34;100139.50;;;25.34;53.94
80654;BME280;70020;45.524;10.240;2023-06-26T05:21:00;100135.84;;;25.35;54.33
80654;BME280;70020;45.524;10.240;2023-06-26T05:23:26;100136.28;;;25.39;54.93
80654;BME280;70020;45.524;10.240;2023-06-26T05:25:53;100137.34;;;25.44;53.47
80654;BME280;70020;45.524;10.240;2023-06-26T05:28:19;100139.38;;;25.49;54.25
80654;BME280;70020;45.524;10.240;2023-06-26T05:30:45;100138.16;;;25.51;52.69
80654;BME280;70020;45.524;10.240;2023-06-26T05:33:14;100141.19;;;25.48;51.36
80654;BME280;70020;45.524;10.240;2023-06-26T05:35:45;100142.44;;;25.59;51.22
80654;BME280;70020;45.524;10.240;2023-06-26T05:38:13;100140.41;;;25.61;52.34
80654;BME280;70020;45.524;10.240;2023-06-26T05:40:39;100144.72;;;25.62;51.39
80654;BME280;70020;45.524;10.240;2023-06-26T05:43:06;100141.63;;;25.58;50.42
80654;BME280;70020;45.524;10.240;2023-06-26T05:45:35;100135.31;;;25.66;51.94
80654;BME280;70020;45.524;10.240;2023-06-26T05:48:01;100137.53;;;25.56;51.00
80654;BME280;70020;45.524;10.240;2023-06-26T05:50:27;100134.50;;;25.59;50.75
80654;BME280;70020;45.524;10.240;2023-06-26T05:52:53;100143.09;;;25.74;50.94
80654;BME280;70020;45.524;10.240;2023-06-26T05:55:20;100139.41;;;25.88;51.13
80654;BME280;70020;45.524;10.240;2023-06-26T05:57:46;100136.75;;;25.88;50.57
80654;BME280;70020;45.524;10.240;2023-06-26T06:00:13;100142.25;;;26.06;50.67
80654;BME280;70020;45.524;10.240;2023-06-26T06:02:40;100141.25;;;26.20;50.36
80654;BME280;70020;45.524;10.240;2023-06-26T06:05:06;100141.84;;;26.22;50.20
80654;BME280;70020;45.524;10.240;2023-06-26T06:07:34;100138.38;;;26.28;49.71
80654;BME280;70020;45.524;10.240;2023-06-26T06:10:00;100147.53;;;26.39;49.07
80654;BME280;70020;45.524;10.240;2023-06-26T06:12:26;100147.75;;;26.38;49.50
80654;BME280;70020;45.524;10.240;2023-06-26T06:14:52;100146.28;;;26.48;50.16
80654;BME280;70020;45.524;10.240;2023-06-26T06:17:22;100155.47;;;26.59;49.85
80654;BME280;70020;45.524;10.240;2023-06-26T06:19:47;100153.97;;;26.69;48.31
80654;BME280;70020;45.524;10.240;2023-06-26T06:22:13;100149.50;;;26.76;49.32
80654;BME280;70020;45.524;10.240;2023-06-26T06:24:42;100149.50;;;26.83;48.89
80654;BME280;70020;45.524;10.240;2023-06-26T06:27:08;100153.34;;;26.87;46.53
80654;BME280;70020;45.524;10.240;2023-06-26T06:29:33;100158.00;;;26.98;46.73
80654;BME280;70020;45.524;10.240;2023-06-26T06:31:59;100152.22;;;27.08;45.87
80654;BME280;70020;45.524;10.240;2023-06-26T06:34:25;100155.47;;;27.16;44.84
80654;BME280;70020;45.524;10.240;2023-06-26T06:36:51;100153.97;;;27.27;44.92
80654;BME280;70020;45.524;10.240;2023-06-26T06:39:16;100153.31;;;27.31;44.41
80654;BME280;70020;45.524;10.240;2023-06-26T06:41:42;100155.34;;;27.36;44.65
80654;BME280;70020;45.524;10.240;2023-06-26T06:44:08;100148.63;;;27.40;42.62
80654;BME280;70020;45.524;10.240;2023-06-26T06:46:34;100152.25;;;27.45;44.81
80654;BME280;70020;45.524;10.240;2023-06-26T06:49:00;100147.09;;;27.50;44.78
80654;BME280;70020;45.524;10.240;2023-06-26T06:51:26;100148.28;;;27.61;44.64
80654;BME280;70020;45.524;10.240;2023-06-26T06:53:52;100150.06;;;27.67;43.44
80654;BME280;70020;45.524;10.240;2023-06-26T06:56:18;100154.72;;;27.72;42.91
80654;BME280;70020;45.524;10.240;2023-06-26T06:58:43;100148.56;;;27.78;44.13
80654;BME280;70020;45.524;10.240;2023-06-26T07:01:11;100145.66;;;27.79;43.66
80654;BME280;70020;45.524;10.240;2023-06-26T07:03:37;100145.91;;;27.78;42.86
80654;BME280;70020;45.524;10.240;2023-06-26T07:06:03;100142.19;;;27.79;41.24
80654;BME280;70020;45.524;10.240;2023-06-26T07:08:28;100150.28;;;27.90;43.02
80654;BME280;70020;45.524;10.240;2023-06-26T07:10:54;100144.69;;;27.98;41.61
80654;BME280;70020;45.524;10.240;2023-06-26T07:13:21;100141.56;;;28.08;41.13
80654;BME280;70020;45.524;10.240;2023-06-26T07:15:47;100148.97;;;28.06;41.85
80654;BME280;70020;45.524;10.240;2023-06-26T07:18:13;100133.34;;;28.09;41.63
80654;BME280;70020;45.524;10.240;2023-06-26T07:20:39;100146.16;;;28.19;42.54
80654;BME280;70020;45.524;10.240;2023-06-26T07:23:05;100144.25;;;28.26;40.31
80654;BME280;70020;45.524;10.240;2023-06-26T07:25:31;100142.84;;;28.23;39.36
80654;BME280;70020;45.524;10.240;2023-06-26T07:27:57;100150.16;;;28.28;40.13
80654;BME280;70020;45.524;10.240;2023-06-26T07:30:23;100147.22;;;28.36;39.74
80654;BME280;70020;45.524;10.240;2023-06-26T07:32:49;100154.47;;;28.47;40.27
80654;BME280;70020;45.524;10.240;2023-06-26T07:35:15;100152.34;;;28.56;39.94
80654;BME280;70020;45.524;10.240;2023-06-26T07:37:41;100155.53;;;28.64;39.06
80654;BME280;70020;45.524;10.240;2023-06-26T07:40:07;100156.28;;;28.71;38.44
80654;BME280;70020;45.524;10.240;2023-06-26T07:42:33;100154.22;;;28.73;38.62
80654;BME280;70020;45.524;10.240;2023-06-26T07:44:59;100148.94;;;28.85;39.51
80654;BME280;70020;45.524;10.240;2023-06-26T07:47:25;100152.19;;;28.87;39.93
80654;BME280;70020;45.524;10.240;2023-06-26T07:49:50;100152.19;;;28.87;40.49
80654;BME280;70020;45.524;10.240;2023-06-26T07:52:16;100142.69;;;28.79;39.82
80654;BME280;70020;45.524;10.240;2023-06-26T07:54:42;100142.22;;;28.82;40.39
80654;BME280;70020;45.524;10.240;2023-06-26T07:57:07;100149.81;;;28.97;40.50
80654;BME280;70020;45.524;10.240;2023-06-26T07:59:34;100145.81;;;29.06;40.44
80654;BME280;70020;45.524;10.240;2023-06-26T08:02:00;100144.69;;;29.14;39.33
80654;BME280;70020;45.524;10.240;2023-06-26T08:04:27;100144.03;;;29.18;40.06
80654;BME280;70020;45.524;10.240;2023-06-26T08:06:56;100144.03;;;29.18;38.88
80654;BME280;70020;45.524;10.240;2023-06-26T08:09:25;100144.41;;;29.22;37.93
80654;BME280;70020;45.524;10.240;2023-06-26T08:11:51;100148.72;;;29.34;38.17
80654;BME280;70020;45.524;10.240;2023-06-26T08:14:17;100145.59;;;29.37;37.39
80654;BME280;70020;45.524;10.240;2023-06-26T08:16:43;100137.16;;;29.40;37.43
80654;BME280;70020;45.524;10.240;2023-06-26T08:19:10;100144.91;;;29.42;37.17
80654;BME280;70020;45.524;10.240;2023-06-26T08:21:36;100136.56;;;29.38;37.46
80654;BME280;70020;45.524;10.240;2023-06-26T08:24:02;100140.03;;;29.39;36.27
80654;BME280;70020;45.524;10.240;2023-06-26T08:26:28;100127.53;;;29.39;36.86
80654;BME280;70020;45.524;10.240;2023-06-26T08:28:53;100130.81;;;29.53;37.08
80654;BME280;70020;45.524;10.240;2023-06-26T08:31:19;100125.50;;;29.64;37.61
80654;BME280;70020;45.524;10.240;2023-06-26T08:33:44;100125.84;;;29.68;36.87
80654;BME280;70020;45.524;10.240;2023-06-26T08:36:11;100125.56;;;29.76;35.82
80654;BME280;70020;45.524;10.240;2023-06-26T08:38:36;100127.69;;;29.67;36.77
80654;BME280;70020;45.524;10.240;2023-06-26T08:41:02;100123.88;;;29.75;37.63
80654;BME280;70020;45.524;10.240;2023-06-26T08:43:28;100120.31;;;29.70;36.48
80654;BME280;70020;45.524;10.240;2023-06-26T08:45:54;100126.94;;;29.79;35.58
80654;BME280;70020;45.524;10.240;2023-06-26T08:48:20;100127.16;;;29.89;36.35
80654;BME280;70020;45.524;10.240;2023-06-26T08:50:49;100125.69;;;29.93;36.30
80654;BME280;70020;45.524;10.240;2023-06-26T08:56:04;100124.84;;;30.04;36.87
80654;BME280;70020;45.524;10.240;2023-06-26T08:58:31;100118.59;;;29.98;35.84
80654;BME280;70020;45.524;10.240;2023-06-26T09:00:57;100119.06;;;29.95;36.09
80654;BME280;70020;45.524;10.240;2023-06-26T09:03:23;100118.13;;;29.90;35.57
80654;BME280;70020;45.524;10.240;2023-06-26T09:05:50;100112.53;;;30.03;35.98
80654;BME280;70020;45.524;10.240;2023-06-26T09:08:15;100110.47;;;30.16;36.36
80654;BME280;70020;45.524;10.240;2023-06-26T09:10:41;100112.91;;;30.18;36.71
80654;BME280;70020;45.524;10.240;2023-06-26T09:13:09;100111.50;;;30.15;37.00
80654;BME280;70020;45.524;10.240;2023-06-26T09:15:41;100116.16;;;30.08;36.09
80654;BME280;70020;45.524;10.240;2023-06-26T09:18:08;100107.22;;;30.14;35.98
80654;BME280;70020;45.524;10.240;2023-06-26T09:20:34;100111.50;;;30.15;36.63
80654;BME280;70020;45.524;10.240;2023-06-26T09:23:00;100110.66;;;30.26;34.17
80654;BME280;70020;45.524;10.240;2023-06-26T09:25:26;100103.28;;;30.40;34.72
80654;BME280;70020;45.524;10.240;2023-06-26T09:27:53;100086.19;;;30.41;34.11
80654;BME280;70020;45.524;10.240;2023-06-26T09:30:18;100103.72;;;30.49;34.64
80654;BME280;70020;45.524;10.240;2023-06-26T09:32:44;100100.56;;;30.52;33.29
80654;BME280;70020;45.524;10.240;2023-06-26T09:35:10;100101.25;;;30.59;34.29
80654;BME280;70020;45.524;10.240;2023-06-26T09:37:36;100099.72;;;30.63;34.19
80654;BME280;70020;45.524;10.240;2023-06-26T09:40:02;100094.47;;;30.68;35.63
80654;BME280;70020;45.524;10.240;2023-06-26T09:42:29;100089.34;;;30.78;33.94
80654;BME280;70020;45.524;10.240;2023-06-26T09:44:55;100088.72;;;30.87;35.08
80654;BME280;70020;45.524;10.240;2023-06-26T09:47:21;100087.00;;;30.81;35.02
80654;BME280;70020;45.524;10.240;2023-06-26T09:49:47;100086.19;;;30.81;35.24
80654;BME280;70020;45.524;10.240;2023-06-26T09:52:16;100079.06;;;30.98;34.38
80654;BME280;70020;45.524;10.240;2023-06-26T09:54:43;100084.75;;;31.02;34.12
80654;BME280;70020;45.524;10.240;2023-06-26T09:57:16;100075.28;;;31.11;33.91
80654;BME280;70020;45.524;10.240;2023-06-26T09:59:44;100071.63;;;31.17;34.01
80654;BME280;70020;45.524;10.240;2023-06-26T10:02:11;100072.25;;;31.07;34.91
80654;BME280;70020;45.524;10.240;2023-06-26T10:04:37;100070.25;;;31.14;33.40
80654;BME280;70020;45.524;10.240;2023-06-26T10:07:05;100073.31;;;31.06;33.49
80654;BME280;70020;45.524;10.240;2023-06-26T10:09:32;100065.97;;;31.13;35.69
80654;BME280;70020;45.524;10.240;2023-06-26T10:14:33;100071.13;;;31.03;32.42
80654;BME280;70020;45.524;10.240;2023-06-26T10:17:01;100064.84;;;31.09;36.47
80654;BME280;70020;45.524;10.240;2023-06-26T10:19:33;100072.09;;;30.97;34.27
80654;BME280;70020;45.524;10.240;2023-06-26T10:22:00;100066.59;;;31.04;31.88
80654;BME280;70020;45.524;10.240;2023-06-26T10:24:29;100064.41;;;31.17;33.44
80654;BME280;70020;45.524;10.240;2023-06-26T10:27:01;100059.50;;;31.09;32.77
80654;BME280;70020;45.524;10.240;2023-06-26T10:29:28;100066.81;;;31.30;33.44
80654;BME280;70020;45.524;10.240;2023-06-26T10:31:57;100059.34;;;31.32;34.30
80654;BME280;70020;45.524;10.240;2023-06-26T10:34:24;100061.59;;;31.40;33.75
80654;BME280;70020;45.524;10.240;2023-06-26T10:37:01;100056.53;;;31.55;32.58
80654;BME280;70020;45.524;10.240;2023-06-26T10:39:26;100065.34;;;31.39;32.89
80654;BME280;70020;45.524;10.240;2023-06-26T10:41:54;100055.22;;;31.41;32.69
80654;BME280;70020;45.524;10.240;2023-06-26T10:44:21;100056.53;;;31.55;33.33
80654;BME280;70020;45.524;10.240;2023-06-26T10:46:54;100051.97;;;31.73;32.35
80654;BME280;70020;45.524;10.240;2023-06-26T10:49:28;100055.47;;;31.73;32.08
80654;BME280;70020;45.524;10.240;2023-06-26T10:51:53;100050.03;;;31.85;32.19
80654;BME280;70020;45.524;10.240;2023-06-26T10:54:21;100044.78;;;31.73;32.33
80654;BME280;70020;45.524;10.240;2023-06-26T10:56:54;100046.56;;;31.68;31.09
80654;BME280;70020;45.524;10.240;2023-06-26T10:59:25;100039.81;;;31.82;33.11
80654;BME280;70020;45.524;10.240;2023-06-26T11:01:59;100048.75;;;31.92;32.89
80654;BME280;70020;45.524;10.240;2023-06-26T11:04:47;100040.50;;;31.94;33.62
80654;BME280;70020;45.524;10.240;2023-06-26T11:07:25;100041.59;;;31.76;32.69
80654;BME280;70020;45.524;10.240;2023-06-26T11:09:55;100045.16;;;31.82;34.75
80654;BME280;70020;45.524;10.240;2023-06-26T11:12:40;100043.59;;;31.86;32.63
80654;BME280;70020;45.524;10.240;2023-06-26T11:15:14;100045.31;;;31.92;33.19
80654;BME280;70020;45.524;10.240;2023-06-26T11:17:41;100042.84;;;32.07;33.04
80654;BME280;70020;45.524;10.240;2023-06-26T11:20:09;100042.09;;;31.95;34.47
80654;BME280;70020;45.524;10.240;2023-06-26T11:22:39;100039.78;;;31.98;34.44
80654;BME280;70020;45.524;10.240;2023-06-26T11:25:06;100034.66;;;31.97;34.18
80654;BME280;70020;45.524;10.240;2023-06-26T11:27:41;100040.59;;;31.99;33.55
80654;BME280;70020;45.524;10.240;2023-06-26T11:30:09;100040.28;;;31.79;33.55
80654;BME280;70020;45.524;10.240;2023-06-26T11:32:38;100036.13;;;31.88;33.54
80654;BME280;70020;45.524;10.240;2023-06-26T11:35:04;100043.09;;;32.05;33.16
80654;BME280;70020;45.524;10.240;2023-06-26T11:37:31;100033.28;;;32.11;33.49
80654;BME280;70020;45.524;10.240;2023-06-26T11:39:57;100037.75;;;32.27;34.73
80654;BME280;70020;45.524;10.240;2023-06-26T11:42:23;100040.25;;;32.34;34.10
80654;BME280;70020;45.524;10.240;2023-06-26T11:44:51;100039.88;;;32.25;33.34
80654;BME280;70020;45.524;10.240;2023-06-26T11:47:18;100040.94;;;32.24;32.79
80654;BME280;70020;45.524;10.240;2023-06-26T11:49:48;100041.53;;;32.31;32.84
80654;BME280;70020;45.524;10.240;2023-06-26T11:52:14;100033.13;;;32.44;34.50
80654;BME280;70020;45.524;10.240;2023-06-26T11:54:42;100048.53;;;32.32;33.22
80654;BME280;70020;45.524;10.240;2023-06-26T11:57:08;100042.59;;;32.30;34.33
80654;BME280;70020;45.524;10.240;2023-06-26T11:59:38;100035.00;;;32.44;32.95
80654;BME280;70020;45.524;10.240;2023-06-26T12:02:13;100031.03;;;32.46;32.52
80654;BME280;70020;45.524;10.240;2023-06-26T12:04:44;100027.34;;;32.52;32.34
80654;BME280;70020;45.524;10.240;2023-06-26T12:07:14;100031.59;;;32.70;34.64
80654;BME280;70020;45.524;10.240;2023-06-26T12:09:42;100027.38;;;32.79;33.85
80654;BME280;70020;45.524;10.240;2023-06-26T12:12:10;100030.81;;;32.74;33.63
80654;BME280;70020;45.524;10.240;2023-06-26T12:14:36;100025.13;;;32.71;33.83
80654;BME280;70020;45.524;10.240;2023-06-26T12:17:15;100028.19;;;32.79;32.86
80654;BME280;70020;45.524;10.240;2023-06-26T12:19:45;100020.78;;;32.91;33.07
80654;BME280;70020;45.524;10.240;2023-06-26T12:22:13;100023.81;;;33.00;32.98
80654;BME280;70020;45.524;10.240;2023-06-26T12:24:39;100016.69;;;33.11;33.23
80654;BME280;70020;45.524;10.240;2023-06-26T12:27:13;100015.03;;;33.05;31.91
80654;BME280;70020;45.524;10.240;2023-06-26T12:29:45;100006.72;;;33.06;32.87
80654;BME280;70020;45.524;10.240;2023-06-26T12:32:14;100013.41;;;33.04;32.26
80654;BME280;70020;45.524;10.240;2023-06-26T12:34:40;100018.88;;;33.14;33.97
80654;BME280;70020;45.524;10.240;2023-06-26T12:37:10;100009.25;;;33.18;32.21
80654;BME280;70020;45.524;10.240;2023-06-26T12:39:47;100011.47;;;33.26;33.28
80654;BME280;70020;45.524;10.240;2023-06-26T12:42:15;100020.06;;;33.28;33.11
80654;BME280;70020;45.524;10.240;2023-06-26T12:44:41;100008.28;;;33.29;31.92
80654;BME280;70020;45.524;10.240;2023-06-26T12:47:06;100012.59;;;33.35;33.72
80654;BME280;70020;45.524;10.240;2023-06-26T12:49:40;100003.78;;;33.39;33.36